Hillsdale, New Jersey
Current Conditions -  °F | °C
As of 4:51 PM on Friday 24 Oct 2014 (Local Time) from KTEB Reporting Station
Scattered Clouds Scattered Clouds  
Wind Chill: 64°   Ceiling: Unl
Heat Index: 64°   Visibility: 10mi
Dew Point: 44°   Wind: 7mph
Humidity: 48%   Direction: 30°NNE
Pressure: 29.75"   Gusts: NA
Location:  41°N, 74.04°W
Report Text: KTEB 242051Z 03006KT 10SM SCT055 18/07 A2975 RMK AO2 SLP075 T01780067 56006
Loading
Personal Weather Stations






























Interactive Weather Map
Tropical Storm Tracking
New forecast layout! Learn more

10-Day Weather Forecast

Advertisements
Track Severe Weather on mobile